Kezdőlap
METAR-TAF:

METAR-TAF

Repülőterek :

Hua Hin, Thaiföld

földrajzi szélesség: 12-35N, földrajzi hosszúság: 099-57E, magasság: 5 m

Jelenlegi meteorológiai megfigyelések

A jelentés 42 perccel ezelõtt készült, 08:00 UTC
Dél-délkeleti szél 12 kt
Hőmérséklet 33°C
Páratartalom 71%
Légköri nyomás 1005 hPa
Látótávolság 10 km, vagy több
Szórványos felhőzet 3000 lábon

METAR: VTPH 280800Z 15012KT 9999 SCT030 33/27 Q1005 NOSIG

Idő: 15:42 (08:42 UTC)

Előrejelzés

A jelentés 3 órával és 42 perccel ezelõtt készült, 05:00 UTC
Az előrejelzés 28-én 06 óra UTC és 29-én 06 óra UTC között érvényes
Dél-délkeleti szél 10 kt
Látótávolság 10 km, vagy több
Kevés felhő 3000 lábon
28-én 15 óra UTC és 28-én 17 óra UTC között fokozatosan kialakuló
Nyugat-délnyugati szél 3 kt
29-én 04 óra UTC és 29-én 06 óra UTC között fokozatosan kialakuló
Dél-délkeleti szél 10 kt

TAF: VTPH 280500Z 2806/2906 15010KT 9999 FEW030 BECMG 2815/2817 24003KT BECMG 2904/2906 15010KT

Meteorológiai megfigyelések és előrejelzések több, mint 4000 repülőtéren (METAR és TAF jelentéseket).

A térképen piros és sárga pontok jelzik az elérhető meteorológiai állomásokat.

Mozgassa az egeret a pont fölött, hogy megjelenjen az állomás neve.

Azután kattintson az időjárási megfigyelések és előrejelzések megtekintéséhez.

A térkép megváltoztatása: kattintson a fekete keresztel jelölt zöld gombra ráközelítéshez, a vonallal jelölt zöld gombra távolításhoz, vagy a zöld nyilakra a szomszédos térképek eléréséhez.


METAR-TAF: